sensor_id;sensor_type;location;lat;lon;timestamp;pressure;altitude;pressure_sealevel;temperature;humidity
64668;BME280;51077;42.716;23.344;2023-01-31T00:00:10;94913.56;;;2.88;53.96
64668;BME280;51077;42.716;23.344;2023-01-31T00:02:35;94924.41;;;2.88;54.21
64668;BME280;51077;42.716;23.344;2023-01-31T00:05:01;94932.53;;;2.88;54.03
64668;BME280;51077;42.716;23.344;2023-01-31T00:07:26;94921.69;;;2.88;54.31
64668;BME280;51077;42.716;23.344;2023-01-31T00:09:52;94934.03;;;2.89;54.28
64668;BME280;51077;42.716;23.344;2023-01-31T00:12:17;94928.59;;;2.89;54.24
64668;BME280;51077;42.716;23.344;2023-01-31T00:14:43;94925.13;;;2.89;54.33
64668;BME280;51077;42.716;23.344;2023-01-31T00:17:08;94922.88;;;2.87;54.24
64668;BME280;51077;42.716;23.344;2023-01-31T00:19:34;94916.25;;;2.88;54.36
64668;BME280;51077;42.716;23.344;2023-01-31T00:21:59;94918.22;;;2.88;54.27
64668;BME280;51077;42.716;23.344;2023-01-31T00:24:25;94918.22;;;2.88;54.29
64668;BME280;51077;42.716;23.344;2023-01-31T00:26:50;94915.97;;;2.86;54.21
64668;BME280;51077;42.716;23.344;2023-01-31T00:29:21;94914.00;;;2.87;54.49
64668;BME280;51077;42.716;23.344;2023-01-31T00:31:47;94907.38;;;2.88;54.46
64668;BME280;51077;42.716;23.344;2023-01-31T00:34:12;94905.88;;;2.87;54.50
64668;BME280;51077;42.716;23.344;2023-01-31T00:36:38;94905.13;;;2.86;54.61
64668;BME280;51077;42.716;23.344;2023-01-31T00:39:04;94919.91;;;2.85;54.48
64668;BME280;51077;42.716;23.344;2023-01-31T00:41:31;94919.44;;;2.87;54.33
64668;BME280;51077;42.716;23.344;2023-01-31T00:43:57;94915.72;;;2.84;54.49
64668;BME280;51077;42.716;23.344;2023-01-31T00:46:22;94918.41;;;2.84;54.58
64668;BME280;51077;42.716;23.344;2023-01-31T00:48:49;94913.00;;;2.84;54.60
64668;BME280;51077;42.716;23.344;2023-01-31T00:51:14;94910.75;;;2.83;54.55
64668;BME280;51077;42.716;23.344;2023-01-31T00:53:40;94908.81;;;2.83;54.66
64668;BME280;51077;42.716;23.344;2023-01-31T00:56:12;94910.00;;;2.82;54.64
64668;BME280;51077;42.716;23.344;2023-01-31T00:58:38;94903.84;;;2.82;54.91
64668;BME280;51077;42.716;23.344;2023-01-31T01:01:18;94901.88;;;2.82;54.78
64668;BME280;51077;42.716;23.344;2023-01-31T01:03:46;94903.84;;;2.82;54.54
64668;BME280;51077;42.716;23.344;2023-01-31T01:06:13;94913.94;;;2.81;54.96
64668;BME280;51077;42.716;23.344;2023-01-31T01:08:40;94929.44;;;2.81;54.53
64668;BME280;51077;42.716;23.344;2023-01-31T01:11:10;94928.69;;;2.80;54.61
64668;BME280;51077;42.716;23.344;2023-01-31T01:13:37;94925.50;;;2.82;54.84
64668;BME280;51077;42.716;23.344;2023-01-31T01:16:14;94913.94;;;2.81;54.67
64668;BME280;51077;42.716;23.344;2023-01-31T01:18:41;94928.69;;;2.80;54.67
64668;BME280;51077;42.716;23.344;2023-01-31T01:21:11;94908.50;;;2.81;55.02
64668;BME280;51077;42.716;23.344;2023-01-31T01:23:39;94900.13;;;2.79;54.62
64668;BME280;51077;42.716;23.344;2023-01-31T01:26:05;94918.59;;;2.81;54.80
64668;BME280;51077;42.716;23.344;2023-01-31T01:28:34;94915.59;;;2.78;54.86
64668;BME280;51077;42.716;23.344;2023-01-31T01:31:07;94902.81;;;2.79;54.68
64668;BME280;51077;42.716;23.344;2023-01-31T01:33:34;94895.44;;;2.80;54.62
64668;BME280;51077;42.716;23.344;2023-01-31T01:36:04;94908.25;;;2.79;54.50
64668;BME280;51077;42.716;23.344;2023-01-31T01:38:30;94905.53;;;2.79;54.66
64668;BME280;51077;42.716;23.344;2023-01-31T01:40:55;94900.13;;;2.79;55.03
64668;BME280;51077;42.716;23.344;2023-01-31T01:43:59;94898.88;;;2.80;54.84
64668;BME280;51077;42.716;23.344;2023-01-31T01:46:29;94904.03;;;2.78;54.45
64668;BME280;51077;42.716;23.344;2023-01-31T01:49:23;94905.53;;;2.79;54.69
64668;BME280;51077;42.716;23.344;2023-01-31T01:51:52;94907.03;;;2.80;54.66
64668;BME280;51077;42.716;23.344;2023-01-31T01:54:23;94902.81;;;2.79;54.79
64668;BME280;51077;42.716;23.344;2023-01-31T01:56:55;94901.59;;;2.80;54.75
64668;BME280;51077;42.716;23.344;2023-01-31T01:59:26;94900.13;;;2.79;54.25
64668;BME280;51077;42.716;23.344;2023-01-31T02:01:54;94889.28;;;2.79;54.73
64668;BME280;51077;42.716;23.344;2023-01-31T02:04:24;94885.03;;;2.78;54.28
64668;BME280;51077;42.716;23.344;2023-01-31T02:06:51;94895.63;;;2.76;54.53
64668;BME280;51077;42.716;23.344;2023-01-31T02:09:45;94909.66;;;2.74;54.32
64668;BME280;51077;42.716;23.344;2023-01-31T02:12:13;94906.66;;;2.72;54.15
64668;BME280;51077;42.716;23.344;2023-01-31T02:14:38;94906.38;;;2.70;54.34
64668;BME280;51077;42.716;23.344;2023-01-31T02:17:04;94896.00;;;2.69;54.05
64668;BME280;51077;42.716;23.344;2023-01-31T02:22:51;94902.38;;;2.66;53.92
64668;BME280;51077;42.716;23.344;2023-01-31T02:34:15;94912.53;;;2.56;53.31
64668;BME280;51077;42.716;23.344;2023-01-31T02:39:42;94918.16;;;2.53;53.15
64668;BME280;51077;42.716;23.344;2023-01-31T02:45:38;94921.63;;;2.53;53.01
64668;BME280;51077;42.716;23.344;2023-01-31T02:51:15;94921.88;;;2.55;52.83
64668;BME280;51077;42.716;23.344;2023-01-31T02:53:48;94935.44;;;2.55;52.76
64668;BME280;51077;42.716;23.344;2023-01-31T02:56:19;94945.03;;;2.56;53.04
64668;BME280;51077;42.716;23.344;2023-01-31T02:58:53;94943.84;;;2.57;52.56
64668;BME280;51077;42.716;23.344;2023-01-31T03:01:26;94953.91;;;2.57;52.79
64668;BME280;51077;42.716;23.344;2023-01-31T03:03:57;94959.34;;;2.57;52.79
64668;BME280;51077;42.716;23.344;2023-01-31T03:09:24;94973.19;;;2.59;52.45
64668;BME280;51077;42.716;23.344;2023-01-31T03:14:45;94980.09;;;2.60;52.89
64668;BME280;51077;42.716;23.344;2023-01-31T03:17:30;94984.50;;;2.57;52.71
64668;BME280;51077;42.716;23.344;2023-01-31T03:20:18;94985.22;;;2.58;52.97
64668;BME280;51077;42.716;23.344;2023-01-31T03:22:54;94979.81;;;2.58;52.77
64668;BME280;51077;42.716;23.344;2023-01-31T03:25:24;94983.72;;;2.57;52.73
64668;BME280;51077;42.716;23.344;2023-01-31T03:27:54;94985.69;;;2.56;52.67
64668;BME280;51077;42.716;23.344;2023-01-31T03:30:27;94982.69;;;2.54;52.77
64668;BME280;51077;42.716;23.344;2023-01-31T03:33:00;94988.13;;;2.54;52.88
64668;BME280;51077;42.716;23.344;2023-01-31T03:35:29;94985.13;;;2.52;52.49
64668;BME280;51077;42.716;23.344;2023-01-31T03:40:34;95003.81;;;2.50;52.77
64668;BME280;51077;42.716;23.344;2023-01-31T03:48:17;95008.38;;;2.44;52.96
64668;BME280;51077;42.716;23.344;2023-01-31T03:50:50;95018.16;;;2.41;53.65
64668;BME280;51077;42.716;23.344;2023-01-31T03:53:46;95011.25;;;2.40;53.81
64668;BME280;51077;42.716;23.344;2023-01-31T03:56:21;95003.59;;;2.39;53.45
64668;BME280;51077;42.716;23.344;2023-01-31T03:58:55;95020.31;;;2.37;53.65
64668;BME280;51077;42.716;23.344;2023-01-31T04:01:24;95019.56;;;2.37;53.63
64668;BME280;51077;42.716;23.344;2023-01-31T04:04:00;95013.09;;;2.34;53.86
64668;BME280;51077;42.716;23.344;2023-01-31T04:06:28;95004.97;;;2.34;54.12
64668;BME280;51077;42.716;23.344;2023-01-31T04:08:54;95008.91;;;2.33;54.55
64668;BME280;51077;42.716;23.344;2023-01-31T04:11:23;95006.19;;;2.33;54.45
64668;BME280;51077;42.716;23.344;2023-01-31T04:13:49;94999.28;;;2.32;54.46
64668;BME280;51077;42.716;23.344;2023-01-31T04:16:14;95006.19;;;2.33;54.70
64668;BME280;51077;42.716;23.344;2023-01-31T04:18:40;95010.13;;;2.32;54.41
64668;BME280;51077;42.716;23.344;2023-01-31T04:21:05;95008.16;;;2.33;54.99
64668;BME280;51077;42.716;23.344;2023-01-31T04:23:31;95004.22;;;2.34;55.08
64668;BME280;51077;42.716;23.344;2023-01-31T04:25:56;94983.03;;;2.32;55.37
64668;BME280;51077;42.716;23.344;2023-01-31T04:28:22;94988.47;;;2.32;55.17
64668;BME280;51077;42.716;23.344;2023-01-31T04:30:54;95012.84;;;2.32;55.28
64668;BME280;51077;42.716;23.344;2023-01-31T04:33:21;95012.09;;;2.32;55.62
64668;BME280;51077;42.716;23.344;2023-01-31T04:35:47;95023.66;;;2.32;55.68
64668;BME280;51077;42.716;23.344;2023-01-31T04:38:12;95024.88;;;2.31;55.60
64668;BME280;51077;42.716;23.344;2023-01-31T04:40:38;95024.09;;;2.31;55.84
64668;BME280;51077;42.716;23.344;2023-01-31T04:43:03;95042.31;;;2.30;55.89
64668;BME280;51077;42.716;23.344;2023-01-31T04:45:29;95045.50;;;2.29;56.17
64668;BME280;51077;42.716;23.344;2023-01-31T04:47:54;95048.22;;;2.29;56.21
64668;BME280;51077;42.716;23.344;2023-01-31T04:50:20;95049.69;;;2.30;56.07
64668;BME280;51077;42.716;23.344;2023-01-31T04:52:48;95045.97;;;2.27;56.32
64668;BME280;51077;42.716;23.344;2023-01-31T04:55:15;95041.00;;;2.25;56.66
64668;BME280;51077;42.716;23.344;2023-01-31T04:57:40;95046.41;;;2.25;56.54
64668;BME280;51077;42.716;23.344;2023-01-31T05:00:06;95047.63;;;2.24;57.07
64668;BME280;51077;42.716;23.344;2023-01-31T05:02:32;95053.78;;;2.25;56.85
64668;BME280;51077;42.716;23.344;2023-01-31T05:04:57;95049.75;;;2.20;57.31
64668;BME280;51077;42.716;23.344;2023-01-31T05:07:22;95049.28;;;2.22;57.09
64668;BME280;51077;42.716;23.344;2023-01-31T05:09:48;95047.06;;;2.20;57.30
64668;BME280;51077;42.716;23.344;2023-01-31T05:12:13;95039.41;;;2.19;57.42
64668;BME280;51077;42.716;23.344;2023-01-31T05:14:39;95043.59;;;2.20;57.47
64668;BME280;51077;42.716;23.344;2023-01-31T05:17:04;95036.69;;;2.19;57.72
64668;BME280;51077;42.716;23.344;2023-01-31T05:19:30;95033.25;;;2.18;58.14
64668;BME280;51077;42.716;23.344;2023-01-31T05:21:55;95044.81;;;2.19;57.92
64668;BME280;51077;42.716;23.344;2023-01-31T05:24:26;95044.81;;;2.19;58.10
64668;BME280;51077;42.716;23.344;2023-01-31T05:26:52;95044.34;;;2.20;58.01
64668;BME280;51077;42.716;23.344;2023-01-31T05:29:22;95041.16;;;2.22;58.40
64668;BME280;51077;42.716;23.344;2023-01-31T05:31:53;95050.06;;;2.22;58.09
64668;BME280;51077;42.716;23.344;2023-01-31T05:34:19;95051.56;;;2.23;57.94
64668;BME280;51077;42.716;23.344;2023-01-31T05:36:45;95058.00;;;2.26;58.21
64668;BME280;51077;42.716;23.344;2023-01-31T05:39:10;95059.50;;;2.27;58.07
64668;BME280;51077;42.716;23.344;2023-01-31T05:41:36;95057.56;;;2.28;58.58
64668;BME280;51077;42.716;23.344;2023-01-31T05:44:01;95050.91;;;2.29;58.42
64668;BME280;51077;42.716;23.344;2023-01-31T05:46:27;95062.03;;;2.31;58.33
64668;BME280;51077;42.716;23.344;2023-01-31T05:48:52;95060.84;;;2.32;58.20
64668;BME280;51077;42.716;23.344;2023-01-31T05:51:18;95064.28;;;2.32;58.55
64668;BME280;51077;42.716;23.344;2023-01-31T05:53:43;95062.78;;;2.31;58.81
64668;BME280;51077;42.716;23.344;2023-01-31T05:56:09;95060.34;;;2.33;58.44
64668;BME280;51077;42.716;23.344;2023-01-31T05:58:34;95071.94;;;2.34;58.62
64668;BME280;51077;42.716;23.344;2023-01-31T06:01:00;95074.66;;;2.34;58.85
64668;BME280;51077;42.716;23.344;2023-01-31T06:03:25;95071.50;;;2.35;58.45
64668;BME280;51077;42.716;23.344;2023-01-31T06:05:51;95073.00;;;2.36;58.75
64668;BME280;51077;42.716;23.344;2023-01-31T06:08:17;95084.56;;;2.37;58.97
64668;BME280;51077;42.716;23.344;2023-01-31T06:10:42;95073.72;;;2.37;58.74
64668;BME280;51077;42.716;23.344;2023-01-31T06:13:08;95074.47;;;2.37;58.38
64668;BME280;51077;42.716;23.344;2023-01-31T06:15:33;95080.94;;;2.40;58.81
64668;BME280;51077;42.716;23.344;2023-01-31T06:17:59;95090.09;;;2.42;58.66
64668;BME280;51077;42.716;23.344;2023-01-31T06:20:25;95088.88;;;2.43;58.44
64668;BME280;51077;42.716;23.344;2023-01-31T06:22:50;95090.66;;;2.46;58.50
64668;BME280;51077;42.716;23.344;2023-01-31T06:25:16;95089.75;;;2.49;58.54
64668;BME280;51077;42.716;23.344;2023-01-31T06:27:42;95077.22;;;2.52;58.59
64668;BME280;51077;42.716;23.344;2023-01-31T06:30:08;95080.97;;;2.55;58.81
64668;BME280;51077;42.716;23.344;2023-01-31T06:32:33;95082.03;;;2.57;58.67
64668;BME280;51077;42.716;23.344;2023-01-31T06:34:59;95084.25;;;2.59;58.34
64668;BME280;51077;42.716;23.344;2023-01-31T06:37:24;95081.81;;;2.61;58.50
64668;BME280;51077;42.716;23.344;2023-01-31T06:39:49;95082.88;;;2.63;58.33
64668;BME280;51077;42.716;23.344;2023-01-31T06:42:15;95096.25;;;2.67;58.21
64668;BME280;51077;42.716;23.344;2023-01-31T06:44:40;95092.59;;;2.70;58.68
64668;BME280;51077;42.716;23.344;2023-01-31T06:47:06;95097.09;;;2.73;58.35
64668;BME280;51077;42.716;23.344;2023-01-31T06:49:31;95099.63;;;2.76;58.40
64668;BME280;51077;42.716;23.344;2023-01-31T06:51:56;95099.44;;;2.80;58.23
64668;BME280;51077;42.716;23.344;2023-01-31T06:54:22;95098.97;;;2.82;58.38
64668;BME280;51077;42.716;23.344;2023-01-31T06:56:47;95101.97;;;2.84;58.37
64668;BME280;51077;42.716;23.344;2023-01-31T06:59:13;95105.25;;;2.88;58.29
64668;BME280;51077;42.716;23.344;2023-01-31T07:01:38;95107.03;;;2.91;58.09
64668;BME280;51077;42.716;23.344;2023-01-31T07:04:04;95099.94;;;2.93;58.46
64668;BME280;51077;42.716;23.344;2023-01-31T07:06:29;95108.34;;;2.95;58.15
64668;BME280;51077;42.716;23.344;2023-01-31T07:08:55;95112.84;;;2.98;58.37
64668;BME280;51077;42.716;23.344;2023-01-31T07:11:20;95106.66;;;2.98;58.31
64668;BME280;51077;42.716;23.344;2023-01-31T07:13:46;95111.16;;;3.01;58.39
64668;BME280;51077;42.716;23.344;2023-01-31T07:16:13;95113.41;;;3.02;58.17
64668;BME280;51077;42.716;23.344;2023-01-31T07:18:38;95120.31;;;3.03;58.07
64668;BME280;51077;42.716;23.344;2023-01-31T07:21:04;95120.13;;;3.07;58.14
64668;BME280;51077;42.716;23.344;2023-01-31T07:23:30;95118.16;;;3.08;57.86
64668;BME280;51077;42.716;23.344;2023-01-31T07:25:55;95113.03;;;3.10;58.01
64668;BME280;51077;42.716;23.344;2023-01-31T07:28:21;95114.53;;;3.11;58.14
64668;BME280;51077;42.716;23.344;2023-01-31T07:30:46;95123.97;;;3.15;57.95
64668;BME280;51077;42.716;23.344;2023-01-31T07:33:12;95126.22;;;3.17;57.88
64668;BME280;51077;42.716;23.344;2023-01-31T07:35:41;95117.44;;;3.22;57.85
64668;BME280;51077;42.716;23.344;2023-01-31T07:38:07;95127.34;;;3.25;57.75
64668;BME280;51077;42.716;23.344;2023-01-31T07:40:32;95124.47;;;3.28;57.59
64668;BME280;51077;42.716;23.344;2023-01-31T07:42:58;95124.53;;;3.34;57.68
64668;BME280;51077;42.716;23.344;2023-01-31T07:45:24;95118.47;;;3.39;57.49
64668;BME280;51077;42.716;23.344;2023-01-31T07:47:50;95122.03;;;3.45;57.64
64668;BME280;51077;42.716;23.344;2023-01-31T07:50:16;95124.34;;;3.52;57.35
64668;BME280;51077;42.716;23.344;2023-01-31T07:52:42;95122.50;;;3.59;57.35
64668;BME280;51077;42.716;23.344;2023-01-31T07:55:08;95121.84;;;3.64;57.29
64668;BME280;51077;42.716;23.344;2023-01-31T07:57:33;95115.47;;;3.67;57.37
64668;BME280;51077;42.716;23.344;2023-01-31T07:59:58;95128.09;;;3.70;57.10
64668;BME280;51077;42.716;23.344;2023-01-31T08:02:25;95122.03;;;3.75;56.97
64668;BME280;51077;42.716;23.344;2023-01-31T08:05:09;95125.28;;;3.79;56.85
64668;BME280;51077;42.716;23.344;2023-01-31T08:07:38;95134.00;;;3.83;56.98
64668;BME280;51077;42.716;23.344;2023-01-31T08:10:03;95135.56;;;3.90;56.88
64668;BME280;51077;42.716;23.344;2023-01-31T08:12:29;95120.88;;;3.96;57.20
64668;BME280;51077;42.716;23.344;2023-01-31T08:14:54;95128.41;;;4.07;56.95
64668;BME280;51077;42.716;23.344;2023-01-31T08:17:20;95119.00;;;4.23;56.67
64668;BME280;51077;42.716;23.344;2023-01-31T08:19:45;95121.59;;;4.52;56.30
64668;BME280;51077;42.716;23.344;2023-01-31T08:22:11;95110.22;;;4.95;55.36
64668;BME280;51077;42.716;23.344;2023-01-31T08:24:36;95117.41;;;5.44;54.56
64668;BME280;51077;42.716;23.344;2023-01-31T08:27:02;95123.06;;;5.98;53.64
64668;BME280;51077;42.716;23.344;2023-01-31T08:29:27;95104.31;;;6.54;52.44
64668;BME280;51077;42.716;23.344;2023-01-31T08:31:53;95124.88;;;7.10;51.93
64668;BME280;51077;42.716;23.344;2023-01-31T08:34:19;95109.31;;;7.55;50.58
64668;BME280;51077;42.716;23.344;2023-01-31T08:36:45;95124.47;;;7.84;49.77
64668;BME280;51077;42.716;23.344;2023-01-31T08:39:10;95126.41;;;8.34;48.98
64668;BME280;51077;42.716;23.344;2023-01-31T08:41:37;95121.41;;;8.55;47.97
64668;BME280;51077;42.716;23.344;2023-01-31T08:44:04;95130.81;;;8.65;47.44
64668;BME280;51077;42.716;23.344;2023-01-31T08:46:31;95116.59;;;8.78;47.05
64668;BME280;51077;42.716;23.344;2023-01-31T08:48:59;95117.22;;;9.12;46.25
64668;BME280;51077;42.716;23.344;2023-01-31T08:51:24;95121.75;;;9.45;45.94
64668;BME280;51077;42.716;23.344;2023-01-31T08:53:50;95105.84;;;9.74;45.01
64668;BME280;51077;42.716;23.344;2023-01-31T08:56:15;95114.84;;;10.04;44.74
64668;BME280;51077;42.716;23.344;2023-01-31T08:58:43;95116.84;;;10.59;44.17
64668;BME280;51077;42.716;23.344;2023-01-31T09:01:10;95120.19;;;11.14;43.22
64668;BME280;51077;42.716;23.344;2023-01-31T09:03:37;95123.44;;;11.69;42.06
64668;BME280;51077;42.716;23.344;2023-01-31T09:06:05;95121.09;;;12.24;41.29
64668;BME280;51077;42.716;23.344;2023-01-31T09:08:31;95130.34;;;12.79;40.86
64668;BME280;51077;42.716;23.344;2023-01-31T09:10:57;95129.81;;;13.34;39.51
64668;BME280;51077;42.716;23.344;2023-01-31T09:13:25;95118.25;;;13.91;38.85
64668;BME280;51077;42.716;23.344;2023-01-31T09:16:08;95124.03;;;14.42;38.51
64668;BME280;51077;42.716;23.344;2023-01-31T09:18:35;95105.84;;;14.68;37.46
64668;BME280;51077;42.716;23.344;2023-01-31T09:23:31;95108.81;;;15.50;36.67
64668;BME280;51077;42.716;23.344;2023-01-31T09:25:56;95117.22;;;15.96;35.90
64668;BME280;51077;42.716;23.344;2023-01-31T09:28:22;95102.31;;;16.37;35.47
64668;BME280;51077;42.716;23.344;2023-01-31T09:30:49;95103.22;;;16.47;35.04
64668;BME280;51077;42.716;23.344;2023-01-31T09:33:15;95089.00;;;16.51;34.41
64668;BME280;51077;42.716;23.344;2023-01-31T09:35:40;95084.56;;;16.63;34.14
64668;BME280;51077;42.716;23.344;2023-01-31T09:38:06;95085.84;;;16.77;33.93
64668;BME280;51077;42.716;23.344;2023-01-31T09:40:32;95073.66;;;16.73;33.87
64668;BME280;51077;42.716;23.344;2023-01-31T09:43:01;95086.31;;;17.06;33.20
64668;BME280;51077;42.716;23.344;2023-01-31T09:45:31;95077.56;;;17.25;32.43
64668;BME280;51077;42.716;23.344;2023-01-31T09:47:59;95072.59;;;17.56;32.07
64668;BME280;51077;42.716;23.344;2023-01-31T09:50:35;95080.09;;;17.79;31.75
64668;BME280;51077;42.716;23.344;2023-01-31T09:53:04;95082.59;;;17.92;32.12
64668;BME280;51077;42.716;23.344;2023-01-31T10:01:44;95078.22;;;18.31;30.90
64668;BME280;51077;42.716;23.344;2023-01-31T10:07:23;95080.81;;;17.72;31.55
64668;BME280;51077;42.716;23.344;2023-01-31T10:09:54;95083.66;;;17.24;32.02
64668;BME280;51077;42.716;23.344;2023-01-31T10:12:37;95073.59;;;16.96;32.08
64668;BME280;51077;42.716;23.344;2023-01-31T10:15:12;95075.28;;;16.83;32.57
64668;BME280;51077;42.716;23.344;2023-01-31T10:17:45;95069.94;;;16.63;32.90
64668;BME280;51077;42.716;23.344;2023-01-31T10:20:34;95077.19;;;16.27;33.04
64668;BME280;51077;42.716;23.344;2023-01-31T10:23:15;95068.34;;;15.98;33.59
64668;BME280;51077;42.716;23.344;2023-01-31T10:26:03;95078.22;;;15.63;34.01
64668;BME280;51077;42.716;23.344;2023-01-31T10:44:41;95051.69;;;13.18;37.15
64668;BME280;51077;42.716;23.344;2023-01-31T10:47:15;95053.44;;;12.95;37.42
64668;BME280;51077;42.716;23.344;2023-01-31T10:49:46;95059.31;;;12.65;37.80
64668;BME280;51077;42.716;23.344;2023-01-31T10:55:14;95046.03;;;12.10;38.66
64668;BME280;51077;42.716;23.344;2023-01-31T10:57:46;95057.97;;;11.86;38.97
64668;BME280;51077;42.716;23.344;2023-01-31T11:00:25;95053.31;;;11.62;39.20
64668;BME280;51077;42.716;23.344;2023-01-31T11:02:52;95056.41;;;11.40;39.65
64668;BME280;51077;42.716;23.344;2023-01-31T11:05:22;95050.19;;;11.20;39.67
64668;BME280;51077;42.716;23.344;2023-01-31T11:07:48;95056.94;;;11.00;39.89
64668;BME280;51077;42.716;23.344;2023-01-31T11:10:29;95057.97;;;10.78;40.19
64668;BME280;51077;42.716;23.344;2023-01-31T11:12:57;95051.00;;;10.59;40.70
64668;BME280;51077;42.716;23.344;2023-01-31T11:15:33;95049.38;;;10.44;40.79
64668;BME280;51077;42.716;23.344;2023-01-31T11:18:00;95054.56;;;10.29;41.22
64668;BME280;51077;42.716;23.344;2023-01-31T11:20:35;95050.19;;;10.15;41.22
64668;BME280;51077;42.716;23.344;2023-01-31T11:23:03;95043.09;;;10.00;41.63
64668;BME280;51077;42.716;23.344;2023-01-31T11:25:31;95045.41;;;9.91;41.69
64668;BME280;51077;42.716;23.344;2023-01-31T11:28:02;95047.41;;;9.90;41.76
64668;BME280;51077;42.716;23.344;2023-01-31T11:30:31;95050.34;;;9.98;41.62
64668;BME280;51077;42.716;23.344;2023-01-31T11:32:57;95053.84;;;9.98;42.04
64668;BME280;51077;42.716;23.344;2023-01-31T11:35:23;95049.38;;;9.95;41.80
64668;BME280;51077;42.716;23.344;2023-01-31T11:38:01;95057.13;;;9.91;42.08
64668;BME280;51077;42.716;23.344;2023-01-31T11:40:32;95057.72;;;9.84;42.00
64668;BME280;51077;42.716;23.344;2023-01-31T11:43:00;95058.00;;;9.75;42.26
64668;BME280;51077;42.716;23.344;2023-01-31T11:45:31;95058.34;;;9.66;42.45
64668;BME280;51077;42.716;23.344;2023-01-31T11:48:19;95062.66;;;9.55;42.63
64668;BME280;51077;42.716;23.344;2023-01-31T11:50:53;95054.50;;;9.44;42.94
64668;BME280;51077;42.716;23.344;2023-01-31T11:53:46;95053.63;;;9.30;43.22
64668;BME280;51077;42.716;23.344;2023-01-31T11:56:19;95062.94;;;9.16;43.66
64668;BME280;51077;42.716;23.344;2023-01-31T11:58:49;95062.25;;;9.04;43.92
64668;BME280;51077;42.716;23.344;2023-01-31T12:01:19;95049.13;;;8.92;44.14
64668;BME280;51077;42.716;23.344;2023-01-31T12:03:55;95060.88;;;8.81;44.38
64668;BME280;51077;42.716;23.344;2023-01-31T12:06:28;95054.22;;;8.71;44.74
64668;BME280;51077;42.716;23.344;2023-01-31T12:08:57;95054.47;;;8.62;44.83
64668;BME280;51077;42.716;23.344;2023-01-31T12:11:30;95050.03;;;8.53;45.07
64668;BME280;51077;42.716;23.344;2023-01-31T12:16:33;95046.88;;;8.38;45.16
64668;BME280;51077;42.716;23.344;2023-01-31T12:26:55;95041.69;;;8.23;45.97
64668;BME280;51077;42.716;23.344;2023-01-31T12:43:02;95047.59;;;8.49;45.52
64668;BME280;51077;42.716;23.344;2023-01-31T12:51:44;95056.31;;;8.31;45.95
64668;BME280;51077;42.716;23.344;2023-01-31T12:59:49;95059.13;;;7.97;46.79
64668;BME280;51077;42.716;23.344;2023-01-31T13:08:05;95069.09;;;7.67;47.27
64668;BME280;51077;42.716;23.344;2023-01-31T13:13:01;95067.59;;;7.54;47.97
64668;BME280;51077;42.716;23.344;2023-01-31T13:15:50;95065.34;;;7.47;47.64
64668;BME280;51077;42.716;23.344;2023-01-31T13:18:20;95067.06;;;7.39;47.51
64668;BME280;51077;42.716;23.344;2023-01-31T13:20:58;95061.38;;;7.32;48.00
64668;BME280;51077;42.716;23.344;2023-01-31T13:23:44;95071.03;;;7.27;47.97
64668;BME280;51077;42.716;23.344;2023-01-31T13:26:23;95068.31;;;7.21;48.14
64668;BME280;51077;42.716;23.344;2023-01-31T13:32:02;95069.78;;;7.11;48.56
64668;BME280;51077;42.716;23.344;2023-01-31T13:35:03;95067.06;;;7.05;48.64
64668;BME280;51077;42.716;23.344;2023-01-31T13:37:32;95072.00;;;7.01;48.59
64668;BME280;51077;42.716;23.344;2023-01-31T13:42:38;95073.47;;;6.97;48.76
64668;BME280;51077;42.716;23.344;2023-01-31T13:45:05;95066.03;;;6.97;49.28
64668;BME280;51077;42.716;23.344;2023-01-31T13:48:04;95070.25;;;6.98;49.06
64668;BME280;51077;42.716;23.344;2023-01-31T13:50:45;95067.03;;;7.00;49.24
64668;BME280;51077;42.716;23.344;2023-01-31T13:53:19;95077.47;;;7.01;49.26
64668;BME280;51077;42.716;23.344;2023-01-31T13:55:48;95073.22;;;7.00;48.96
64668;BME280;51077;42.716;23.344;2023-01-31T13:58:33;95073.50;;;7.02;49.13
64668;BME280;51077;42.716;23.344;2023-01-31T14:01:34;95078.72;;;7.06;48.48
64668;BME280;51077;42.716;23.344;2023-01-31T14:25:14;95096.94;;;6.72;48.66
64668;BME280;51077;42.716;23.344;2023-01-31T14:30:39;95090.97;;;6.62;49.08
64668;BME280;51077;42.716;23.344;2023-01-31T14:38:42;95089.44;;;6.50;49.09
64668;BME280;51077;42.716;23.344;2023-01-31T14:41:17;95104.53;;;6.45;49.47
64668;BME280;51077;42.716;23.344;2023-01-31T14:51:55;95125.00;;;6.29;49.40
64668;BME280;51077;42.716;23.344;2023-01-31T14:54:50;95134.63;;;6.25;49.55
64668;BME280;51077;42.716;23.344;2023-01-31T14:57:25;95131.38;;;6.21;49.54
64668;BME280;51077;42.716;23.344;2023-01-31T14:59:59;95132.84;;;6.16;49.60
64668;BME280;51077;42.716;23.344;2023-01-31T15:05:09;95147.69;;;6.10;50.01
64668;BME280;51077;42.716;23.344;2023-01-31T15:07:35;95150.63;;;6.06;49.82
64668;BME280;51077;42.716;23.344;2023-01-31T15:10:01;95146.88;;;6.03;50.27
64668;BME280;51077;42.716;23.344;2023-01-31T15:12:55;95146.63;;;6.01;50.01
64668;BME280;51077;42.716;23.344;2023-01-31T15:15:32;95166.66;;;5.98;50.13
64668;BME280;51077;42.716;23.344;2023-01-31T15:18:03;95163.66;;;5.96;49.91
64668;BME280;51077;42.716;23.344;2023-01-31T15:20:36;95167.59;;;5.95;50.26
64668;BME280;51077;42.716;23.344;2023-01-31T15:23:06;95164.31;;;5.91;50.53
64668;BME280;51077;42.716;23.344;2023-01-31T15:25:42;95159.00;;;6.02;60.72
64668;BME280;51077;42.716;23.344;2023-01-31T15:28:14;95162.56;;;6.14;60.95
64668;BME280;51077;42.716;23.344;2023-01-31T15:30:40;95172.97;;;6.16;59.15
64668;BME280;51077;42.716;23.344;2023-01-31T15:33:15;95172.69;;;6.14;58.59
64668;BME280;51077;42.716;23.344;2023-01-31T15:38:25;95178.31;;;6.04;57.60
64668;BME280;51077;42.716;23.344;2023-01-31T15:43:45;95179.75;;;5.94;56.86
64668;BME280;51077;42.716;23.344;2023-01-31T15:46:31;95191.31;;;5.89;56.23
64668;BME280;51077;42.716;23.344;2023-01-31T15:48:58;95190.03;;;5.85;56.06
64668;BME280;51077;42.716;23.344;2023-01-31T15:51:25;95194.00;;;5.84;55.63